createdAt,value
2018-02-17T00:01:56.218Z,1.91
2018-02-17T00:04:24.535Z,1.92
2018-02-17T00:06:52.883Z,1.88
2018-02-17T00:09:21.202Z,1.86
2018-02-17T00:11:49.546Z,1.82
2018-02-17T00:14:17.893Z,1.80
2018-02-17T00:16:46.302Z,1.79
2018-02-17T00:19:14.646Z,1.79
2018-02-17T00:21:43.059Z,1.79
2018-02-17T00:24:11.403Z,1.78
2018-02-17T00:26:39.818Z,1.73
2018-02-17T00:29:08.162Z,1.73
2018-02-17T00:31:36.573Z,1.70
2018-02-17T00:34:04.914Z,1.68
2018-02-17T00:36:33.334Z,1.57
2018-02-17T00:39:01.714Z,1.61
2018-02-17T00:41:30.134Z,1.62
2018-02-17T00:43:58.574Z,1.59
2018-02-17T00:46:26.894Z,1.59
2018-02-17T00:48:55.233Z,1.55
2018-02-17T00:51:23.658Z,1.53
2018-02-17T00:53:52.086Z,1.50
2018-02-17T00:56:20.405Z,1.47
2018-02-17T00:58:48.747Z,1.45
2018-02-17T01:01:17.070Z,1.42
2018-02-17T01:03:45.410Z,1.43
2018-02-17T01:06:13.730Z,1.40
2018-02-17T01:08:42.083Z,1.38
2018-02-17T01:11:10.402Z,1.39
2018-02-17T01:13:38.798Z,1.36
2018-02-17T01:16:07.190Z,1.32
2018-02-17T01:18:35.534Z,1.29
2018-02-17T01:21:03.942Z,1.27
2018-02-17T01:23:32.282Z,1.28
2018-02-17T01:26:00.601Z,1.29
2018-02-17T01:28:28.975Z,1.27
2018-02-17T01:30:57.293Z,1.27
2018-02-17T01:33:25.726Z,1.24
2018-02-17T01:35:54.054Z,1.26
2018-02-17T01:38:22.494Z,1.22
2018-02-17T01:40:50.820Z,1.19
2018-02-17T01:43:19.243Z,1.17
2018-02-17T01:45:47.931Z,1.12
2018-02-17T01:48:16.258Z,1.09
2018-02-17T01:50:44.583Z,1.13
2018-02-17T01:53:12.921Z,1.15
2018-02-17T01:55:41.241Z,1.16
2018-02-17T01:58:09.588Z,1.17
2018-02-17T02:00:37.907Z,1.13
2018-02-17T02:03:06.266Z,1.14
2018-02-17T02:05:34.642Z,1.13
2018-02-17T02:08:02.982Z,1.06
2018-02-17T02:10:31.403Z,0.98
2018-02-17T02:12:59.750Z,0.98
2018-02-17T02:15:28.154Z,0.99
2018-02-17T02:17:56.474Z,1.02
2018-02-17T02:20:24.814Z,1.06
2018-02-17T02:22:53.135Z,1.06
2018-02-17T02:25:21.473Z,1.09
2018-02-17T02:27:49.786Z,1.06
2018-02-17T02:30:18.214Z,1.08
2018-02-17T02:32:46.605Z,1.08
2018-02-17T02:35:14.970Z,1.07
2018-02-17T02:37:43.286Z,1.05
2018-02-17T02:40:11.725Z,1.04
2018-02-17T02:42:40.047Z,0.92
2018-02-17T02:45:08.391Z,0.98
2018-02-17T02:47:36.713Z,1.02
2018-02-17T02:50:05.129Z,1.02
2018-02-17T02:52:33.455Z,1.03
2018-02-17T02:55:01.798Z,1.02
2018-02-17T02:57:30.118Z,1.02
2018-02-17T02:59:58.543Z,0.99
2018-02-17T03:02:26.862Z,0.97
2018-02-17T03:04:55.294Z,0.94
2018-02-17T03:07:23.614Z,0.96
2018-02-17T03:09:52.045Z,0.96
2018-02-17T03:12:20.367Z,0.96
2018-02-17T03:14:48.798Z,0.97
2018-02-17T03:17:17.126Z,0.94
2018-02-17T03:19:45.466Z,0.90
2018-02-17T03:22:13.794Z,0.91
2018-02-17T03:24:42.134Z,0.94
2018-02-17T03:27:10.453Z,0.97
2018-02-17T03:29:38.862Z,0.97
2018-02-17T03:32:07.242Z,0.93
2018-02-17T03:34:35.621Z,0.89
2018-02-17T03:37:03.943Z,0.88
2018-02-17T03:39:32.378Z,0.84
2018-02-17T03:42:00.749Z,0.83
2018-02-17T03:44:29.089Z,0.80
2018-02-17T03:46:57.501Z,0.79
2018-02-17T03:49:25.883Z,0.79
2018-02-17T03:51:54.193Z,0.78
2018-02-17T03:54:22.630Z,0.76
2018-02-17T03:56:51.010Z,0.76
2018-02-17T03:59:19.385Z,0.77
2018-02-17T04:01:47.802Z,0.73
2018-02-17T04:04:16.241Z,0.73
2018-02-17T04:06:44.562Z,0.65
2018-02-17T04:09:12.997Z,0.61
2018-02-17T04:11:41.310Z,0.63
2018-02-17T04:14:09.749Z,0.63
2018-02-17T04:16:38.065Z,0.62
2018-02-17T04:19:06.402Z,0.58
2018-02-17T04:21:34.782Z,0.58
2018-02-17T04:24:03.094Z,0.55
2018-02-17T04:26:31.533Z,0.55
2018-02-17T04:28:59.850Z,0.51
2018-02-17T04:31:28.284Z,0.28
2018-02-17T04:33:56.666Z,-0.01
2018-02-17T04:36:25.038Z,0.15
2018-02-17T04:38:53.358Z,0.21
2018-02-17T04:41:31.604Z,0.02
2018-02-17T04:43:59.918Z,0.12
2018-02-17T04:46:31.082Z,0.15
2018-02-17T04:49:05.003Z,0.11
2018-02-17T04:51:39.061Z,0.00
2018-02-17T04:54:09.849Z,0.01
2018-02-17T04:56:41.117Z,-0.07
2018-02-17T04:59:15.878Z,-0.13
2018-02-17T05:04:54.438Z,-0.02
2018-02-17T05:07:33.566Z,-0.05
2018-02-17T05:10:01.914Z,-0.19
2018-02-17T05:12:30.242Z,-0.22
2018-02-17T05:15:04.098Z,-0.15
2018-02-17T05:17:37.966Z,-0.08
2018-02-17T05:20:11.879Z,0.05
2018-02-17T05:25:51.862Z,0.04
2018-02-17T05:28:36.863Z,0.05
2018-02-17T05:31:05.198Z,0.16
2018-02-17T05:36:39.299Z,0.28
2018-02-17T05:39:07.637Z,0.20
2018-02-17T05:41:55.681Z,0.26
2018-02-17T05:47:45.018Z,0.33
2018-02-17T05:50:13.360Z,0.30
2018-02-17T05:52:41.675Z,0.27
2018-02-17T05:55:10.011Z,0.24
2018-02-17T05:57:38.330Z,0.22
2018-02-17T06:00:06.653Z,0.22
2018-02-17T06:02:34.989Z,0.19
2018-02-17T06:05:03.316Z,0.17
2018-02-17T06:07:31.650Z,0.17
2018-02-17T06:09:59.968Z,0.16
2018-02-17T06:12:28.306Z,0.14
2018-02-17T06:14:56.622Z,0.15
2018-02-17T06:17:24.966Z,0.16
2018-02-17T06:19:53.279Z,0.14
2018-02-17T06:22:21.618Z,0.04
2018-02-17T06:24:49.943Z,-0.16
2018-02-17T06:27:18.290Z,-0.19
2018-02-17T06:29:46.618Z,-0.09
2018-02-17T06:32:14.967Z,-0.04
2018-02-17T06:34:43.283Z,0.02
2018-02-17T06:37:11.628Z,0.03
2018-02-17T06:39:39.949Z,0.03
2018-02-17T06:42:08.303Z,-0.08
2018-02-17T06:44:36.632Z,-0.09
2018-02-17T06:47:04.982Z,-0.06
2018-02-17T06:49:33.318Z,-0.05
2018-02-17T06:52:01.662Z,-0.03
2018-02-17T06:54:29.990Z,0.07
2018-02-17T06:56:58.388Z,0.12
2018-02-17T06:59:26.676Z,0.13
2018-02-17T07:01:55.022Z,0.15
2018-02-17T07:04:23.353Z,0.18
2018-02-17T07:06:51.685Z,0.20
2018-02-17T07:09:20.010Z,0.21
2018-02-17T07:11:48.350Z,0.22
2018-02-17T07:14:16.673Z,0.23
2018-02-17T07:16:45.006Z,0.25
2018-02-17T07:19:13.321Z,0.26
2018-02-17T07:21:41.662Z,0.27
2018-02-17T07:24:09.985Z,0.24
2018-02-17T07:26:38.330Z,0.28
2018-02-17T07:29:06.653Z,0.31
2018-02-17T07:31:34.997Z,0.35
2018-02-17T07:34:03.313Z,0.38
2018-02-17T07:36:31.658Z,0.41
2018-02-17T07:38:59.983Z,0.44
2018-02-17T07:41:28.336Z,0.47
2018-02-17T07:43:56.653Z,0.52
2018-02-17T07:46:24.998Z,0.55
2018-02-17T07:48:53.321Z,0.60
2018-02-17T07:51:21.670Z,0.62
2018-02-17T07:53:49.994Z,0.52
2018-02-17T07:56:18.342Z,0.61
2018-02-17T07:58:46.674Z,0.52
2018-02-17T08:01:14.994Z,0.44
2018-02-17T08:03:43.341Z,0.39
2018-02-17T08:06:11.665Z,0.53
2018-02-17T08:08:40.018Z,0.69
2018-02-17T08:11:08.341Z,0.64
2018-02-17T08:13:36.691Z,0.52
2018-02-17T08:16:05.009Z,0.44
2018-02-17T08:18:33.354Z,0.61
2018-02-17T08:21:01.683Z,0.73
2018-02-17T08:23:30.027Z,0.79
2018-02-17T08:25:58.356Z,0.72
2018-02-17T08:28:26.701Z,0.66
2018-02-17T08:30:55.034Z,0.60
2018-02-17T08:33:23.381Z,0.68
2018-02-17T08:35:51.722Z,0.77
2018-02-17T08:38:20.074Z,0.89
2018-02-17T08:40:48.403Z,0.92
2018-02-17T08:43:16.755Z,0.81
2018-02-17T08:45:45.087Z,0.85
2018-02-17T08:48:13.436Z,0.91
2018-02-17T08:50:41.758Z,0.99
2018-02-17T08:53:10.110Z,1.01
2018-02-17T08:55:38.437Z,1.12
2018-02-17T08:58:06.789Z,1.18
2018-02-17T09:00:35.132Z,1.17
2018-02-17T09:03:03.462Z,1.21
2018-02-17T09:05:31.795Z,1.32
2018-02-17T09:08:00.150Z,1.31
2018-02-17T09:10:40.434Z,1.34
2018-02-17T09:13:08.787Z,1.33
2018-02-17T09:15:37.114Z,1.59
2018-02-17T09:18:05.469Z,1.47
2018-02-17T09:20:33.798Z,1.51
2018-02-17T09:23:02.260Z,1.66
2018-02-17T09:25:30.589Z,2.07
2018-02-17T09:27:59.105Z,2.27
2018-02-17T09:30:27.430Z,2.36
2018-02-17T09:32:55.785Z,2.53
2018-02-17T09:35:24.111Z,2.71
2018-02-17T09:37:52.569Z,2.85
2018-02-17T09:40:20.889Z,2.97
2018-02-17T09:42:49.262Z,3.06
2018-02-17T09:45:17.593Z,3.18
2018-02-17T09:47:46.017Z,3.30
2018-02-17T09:50:14.355Z,3.46
2018-02-17T09:52:42.705Z,3.63
2018-02-17T09:55:11.034Z,3.76
2018-02-17T09:57:39.382Z,3.68
2018-02-17T10:00:07.810Z,3.61
2018-02-17T10:02:36.154Z,3.60
2018-02-17T10:05:04.484Z,3.58
2018-02-17T10:07:32.835Z,3.41
2018-02-17T10:10:01.329Z,3.35
2018-02-17T10:12:29.691Z,3.18
2018-02-17T10:14:58.046Z,3.59
2018-02-17T10:17:26.426Z,3.43
2018-02-17T10:19:54.782Z,3.37
2018-02-17T10:22:23.953Z,3.27
2018-02-17T10:24:52.399Z,3.35
2018-02-17T10:27:20.779Z,3.34
2018-02-17T10:29:49.137Z,3.23
2018-02-17T10:32:17.475Z,3.18
2018-02-17T10:34:45.830Z,3.14
2018-02-17T10:37:14.162Z,3.21
2018-02-17T10:39:42.562Z,3.31
2018-02-17T10:42:10.890Z,3.25
2018-02-17T10:44:39.314Z,3.20
2018-02-17T10:47:07.639Z,3.22
2018-02-17T10:49:36.126Z,3.14
2018-02-17T10:52:04.550Z,3.21
2018-02-17T10:54:33.478Z,3.23
2018-02-17T10:57:02.087Z,3.32
2018-02-17T10:59:30.489Z,3.36
2018-02-17T11:01:58.927Z,3.22
2018-02-17T11:04:27.307Z,3.30
2018-02-17T11:06:55.630Z,3.33
2018-02-17T11:09:24.471Z,3.41
2018-02-17T11:11:52.794Z,3.32
2018-02-17T11:14:21.634Z,3.30
2018-02-17T11:16:50.322Z,3.44
2018-02-17T11:19:19.466Z,3.43
2018-02-17T11:21:47.861Z,3.42
2018-02-17T11:24:16.384Z,3.50
2018-02-17T11:26:44.941Z,3.48
2018-02-17T11:29:13.291Z,3.47
2018-02-17T11:31:41.618Z,3.58
2018-02-17T11:34:10.442Z,3.57
2018-02-17T11:36:38.828Z,3.51
2018-02-17T11:39:07.190Z,3.57
2018-02-17T11:41:36.542Z,3.63
2018-02-17T11:44:04.978Z,3.72
2018-02-17T11:46:33.322Z,3.65
2018-02-17T11:49:01.676Z,3.69
2018-02-17T11:51:30.289Z,3.62
2018-02-17T11:54:00.746Z,3.64
2018-02-17T11:56:29.075Z,3.66
2018-02-17T11:58:57.426Z,3.66
2018-02-17T12:01:25.762Z,3.62
2018-02-17T12:03:54.142Z,3.63
2018-02-17T12:06:23.409Z,3.60
2018-02-17T12:08:51.833Z,3.65
2018-02-17T12:11:20.194Z,3.66
2018-02-17T12:13:48.542Z,3.68
2018-02-17T12:16:16.895Z,3.78
2018-02-17T12:18:45.242Z,3.80
2018-02-17T12:21:13.586Z,3.90
2018-02-17T12:23:41.981Z,3.96
2018-02-17T12:26:11.259Z,4.00
2018-02-17T12:28:39.659Z,4.06
2018-02-17T12:31:08.010Z,4.12
2018-02-17T12:33:36.406Z,4.06
2018-02-17T12:36:04.795Z,4.17
2018-02-17T12:38:33.125Z,4.16
2018-02-17T12:41:01.542Z,4.19
2018-02-17T12:43:30.485Z,4.13
2018-02-17T12:45:58.905Z,4.12
2018-02-17T12:48:27.234Z,4.16
2018-02-17T12:50:55.682Z,4.16
2018-02-17T12:53:24.036Z,4.18
2018-02-17T12:55:52.358Z,4.22
2018-02-17T12:58:20.686Z,4.21
2018-02-17T13:00:49.069Z,4.18
2018-02-17T13:03:17.453Z,4.27
2018-02-17T13:05:45.814Z,4.37
2018-02-17T13:08:14.209Z,4.35
2018-02-17T13:10:42.562Z,4.35
2018-02-17T13:13:10.887Z,4.37
2018-02-17T13:15:39.238Z,4.49
2018-02-17T13:18:07.674Z,4.53
2018-02-17T13:20:36.088Z,4.68
2018-02-17T13:23:05.086Z,4.75
2018-02-17T13:25:33.463Z,4.77
2018-02-17T13:28:01.790Z,4.79
2018-02-17T13:30:30.214Z,4.85
2018-02-17T13:32:58.596Z,4.88
2018-02-17T13:35:26.946Z,4.82
2018-02-17T13:37:55.347Z,4.90
2018-02-17T13:40:23.697Z,4.92
2018-02-17T13:42:52.546Z,4.93
2018-02-17T13:45:20.894Z,4.99
2018-02-17T13:47:49.227Z,5.03
2018-02-17T13:50:17.646Z,5.04
2018-02-17T13:52:45.974Z,5.04
2018-02-17T13:55:14.330Z,5.01
2018-02-17T13:57:42.670Z,5.17
2018-02-17T14:00:11.052Z,5.01
2018-02-17T14:02:40.291Z,4.98
2018-02-17T14:05:08.722Z,4.91
2018-02-17T14:07:37.073Z,4.96
2018-02-17T14:10:05.482Z,4.95
2018-02-17T14:12:33.815Z,4.76
2018-02-17T14:15:02.175Z,4.85
2018-02-17T14:17:30.503Z,4.86
2018-02-17T14:19:58.851Z,4.87
2018-02-17T14:22:27.194Z,4.76
2018-02-17T14:24:55.550Z,4.82
2018-02-17T14:27:23.886Z,4.84
2018-02-17T14:29:52.299Z,4.88
2018-02-17T14:32:20.726Z,4.91
2018-02-17T14:34:49.034Z,4.90
2018-02-17T14:37:17.425Z,4.96
2018-02-17T14:39:45.806Z,4.92
2018-02-17T14:42:14.183Z,4.95
2018-02-17T14:44:42.518Z,4.89
2018-02-17T14:47:10.871Z,4.90
2018-02-17T14:49:39.194Z,4.87
2018-02-17T14:52:07.546Z,4.77
2018-02-17T14:54:35.894Z,4.88
2018-02-17T14:57:04.290Z,4.79
2018-02-17T14:59:32.831Z,4.81
2018-02-17T15:02:01.214Z,4.84
2018-02-17T15:04:29.537Z,4.84
2018-02-17T15:06:57.886Z,4.84
2018-02-17T15:09:26.214Z,4.78
2018-02-17T15:11:54.743Z,4.80
2018-02-17T15:14:23.093Z,4.85
2018-02-17T15:16:51.719Z,4.74
2018-02-17T15:19:20.063Z,4.72
2018-02-17T15:21:48.477Z,4.69
2018-02-17T15:24:18.133Z,4.70
2018-02-17T15:26:46.643Z,4.60
2018-02-17T15:29:14.963Z,4.63
2018-02-17T15:31:43.310Z,4.60
2018-02-17T15:34:12.646Z,4.54
2018-02-17T15:36:40.994Z,4.52
2018-02-17T15:39:09.322Z,4.50
2018-02-17T15:41:38.358Z,4.56
2018-02-17T15:44:06.686Z,4.49
2018-02-17T15:46:35.080Z,4.41
2018-02-17T15:49:03.423Z,4.39
2018-02-17T15:51:31.864Z,4.39
2018-02-17T15:54:01.114Z,4.46
2018-02-17T15:56:29.458Z,4.33
2018-02-17T15:58:57.806Z,4.27
2018-02-17T16:01:26.150Z,4.23
2018-02-17T16:03:54.490Z,4.27
2018-02-17T16:06:22.842Z,4.34
2018-02-17T16:08:51.202Z,4.26
2018-02-17T16:11:19.549Z,4.22
2018-02-17T16:13:47.878Z,4.22
2018-02-17T16:16:16.224Z,4.07
2018-02-17T16:18:44.545Z,4.07
2018-02-17T16:21:12.911Z,4.00
2018-02-17T16:23:41.265Z,3.94
2018-02-17T16:26:09.617Z,3.92
2018-02-17T16:28:37.946Z,3.92
2018-02-17T16:31:06.310Z,3.84
2018-02-17T16:33:34.651Z,3.89
2018-02-17T16:36:02.986Z,3.83
2018-02-17T16:38:31.343Z,3.80
2018-02-17T16:41:00.629Z,3.79
2018-02-17T16:43:28.982Z,3.70
2018-02-17T16:45:57.320Z,3.83
2018-02-17T16:48:25.674Z,5.44
2018-02-17T16:50:54.011Z,5.60
2018-02-17T16:53:22.358Z,5.32
2018-02-17T16:55:50.688Z,4.88
2018-02-17T16:58:19.033Z,4.62
2018-02-17T17:00:47.542Z,4.38
2018-02-17T17:03:15.885Z,4.31
2018-02-17T17:05:44.218Z,4.13
2018-02-17T17:08:12.570Z,3.94
2018-02-17T17:10:40.899Z,3.87
2018-02-17T17:13:09.247Z,3.90
2018-02-17T17:15:37.573Z,3.90
2018-02-17T17:18:05.925Z,3.96
2018-02-17T17:20:35.173Z,3.99
2018-02-17T17:23:03.518Z,3.91
2018-02-17T17:25:31.857Z,3.81
2018-02-17T17:28:00.202Z,3.78
2018-02-17T17:30:28.533Z,3.80
2018-02-17T17:32:56.882Z,3.69
2018-02-17T17:35:25.230Z,3.52
2018-02-17T17:37:53.590Z,3.56
2018-02-17T17:40:21.918Z,3.50
2018-02-17T17:42:50.272Z,3.51
2018-02-17T17:45:18.602Z,3.54
2018-02-17T17:47:46.954Z,3.56
2018-02-17T17:50:15.592Z,3.57
2018-02-17T17:52:44.733Z,3.57
2018-02-17T17:55:13.081Z,3.57
2018-02-17T17:57:41.462Z,3.54
2018-02-17T18:00:09.886Z,3.52
2018-02-17T18:02:38.234Z,3.37
2018-02-17T18:05:06.643Z,3.24
2018-02-17T18:07:34.998Z,3.27
2018-02-17T18:10:03.326Z,3.23
2018-02-17T18:12:31.675Z,3.19
2018-02-17T18:15:00.003Z,3.21
2018-02-17T18:17:28.354Z,3.15
2018-02-17T18:19:56.682Z,3.03
2018-02-17T18:22:25.034Z,2.97
2018-02-17T18:24:53.357Z,2.97
2018-02-17T18:27:21.714Z,2.93
2018-02-17T18:29:50.043Z,2.90
2018-02-17T18:32:18.410Z,2.85
2018-02-17T18:34:46.730Z,2.80
2018-02-17T18:37:15.062Z,2.77
2018-02-17T18:39:43.898Z,2.75
2018-02-17T18:42:12.222Z,2.72
2018-02-17T18:44:40.578Z,2.65
2018-02-17T18:47:08.910Z,2.65
2018-02-17T18:49:37.302Z,2.75
2018-02-17T18:52:05.702Z,2.99
2018-02-17T18:54:34.062Z,4.41
2018-02-17T18:57:02.466Z,4.20
2018-02-17T18:59:31.110Z,4.02
2018-02-17T19:01:59.523Z,3.85
2018-02-17T19:04:27.878Z,3.63
2018-02-17T19:06:56.206Z,3.51
2018-02-17T19:09:24.555Z,3.40
2018-02-17T19:11:52.882Z,3.29
2018-02-17T19:14:21.878Z,3.15
2018-02-17T19:16:50.213Z,3.11
2018-02-17T19:19:18.673Z,3.16
2018-02-17T19:21:47.002Z,3.09
2018-02-17T19:24:15.432Z,2.98
2018-02-17T19:26:43.763Z,3.02
2018-02-17T19:29:12.183Z,3.09
2018-02-17T19:31:40.521Z,3.12
2018-02-17T19:34:08.875Z,3.11
2018-02-17T19:36:37.211Z,3.08
2018-02-17T19:39:07.027Z,3.02
2018-02-17T19:41:35.406Z,2.96
2018-02-17T19:44:03.784Z,2.93
2018-02-17T19:46:32.119Z,2.88
2018-02-17T19:49:00.478Z,2.82
2018-02-17T19:51:28.829Z,2.77
2018-02-17T19:53:57.292Z,2.75
2018-02-17T19:56:25.623Z,2.72
2018-02-17T19:58:54.050Z,2.66
2018-02-17T20:01:22.383Z,2.64
2018-02-17T20:03:50.801Z,2.59
2018-02-17T20:06:20.116Z,2.54
2018-02-17T20:08:50.128Z,2.51
2018-02-17T20:11:18.782Z,2.51
2018-02-17T20:13:47.171Z,2.49
2018-02-17T20:16:16.430Z,2.49
2018-02-17T20:18:44.899Z,2.43
2018-02-17T20:21:13.215Z,2.18
2018-02-17T20:23:41.610Z,2.21
2018-02-17T20:26:09.930Z,2.25
2018-02-17T20:28:38.399Z,2.25
2018-02-17T20:31:06.750Z,2.23
2018-02-17T20:33:35.136Z,2.20
2018-02-17T20:36:04.361Z,2.11
2018-02-17T20:38:32.722Z,1.70
2018-02-17T20:41:01.058Z,1.88
2018-02-17T20:43:29.431Z,1.93
2018-02-17T20:45:57.872Z,1.82
2018-02-17T20:48:26.355Z,1.76
2018-02-17T20:50:54.770Z,1.85
2018-02-17T20:53:42.312Z,1.88
2018-02-17T20:56:11.560Z,1.83
2018-02-17T20:58:39.931Z,1.87
2018-02-17T21:01:08.508Z,1.87
2018-02-17T21:03:37.866Z,1.77
2018-02-17T21:06:06.279Z,1.76
2018-02-17T21:08:34.662Z,1.71
2018-02-17T21:11:03.006Z,1.61
2018-02-17T21:13:31.414Z,1.68
2018-02-17T21:16:00.847Z,1.62
2018-02-17T21:18:29.327Z,1.56
2018-02-17T21:20:57.750Z,1.63
2018-02-17T21:23:26.142Z,1.52
2018-02-17T21:25:54.494Z,1.50
2018-02-17T21:28:22.827Z,1.41
2018-02-17T21:30:51.184Z,1.39
2018-02-17T21:33:19.546Z,1.41
2018-02-17T21:35:47.915Z,1.39
2018-02-17T21:38:16.242Z,1.36
2018-02-17T21:40:44.604Z,1.35
2018-02-17T21:43:12.983Z,1.35
2018-02-17T21:45:42.498Z,1.32
2018-02-17T21:48:10.865Z,1.28
2018-02-17T21:50:39.203Z,1.22
2018-02-17T21:53:07.538Z,1.26
2018-02-17T21:55:35.887Z,1.25
2018-02-17T21:58:04.247Z,0.97
2018-02-17T22:00:32.598Z,0.95
2018-02-17T22:03:00.932Z,1.08
2018-02-17T22:05:30.014Z,1.07
2018-02-17T22:07:58.340Z,1.09
2018-02-17T22:10:26.738Z,1.08
2018-02-17T22:12:55.879Z,1.07
2018-02-17T22:15:24.230Z,1.02
2018-02-17T22:17:52.571Z,1.02
2018-02-17T22:20:20.934Z,0.94
2018-02-17T22:22:49.265Z,0.88
2018-02-17T22:25:17.746Z,0.77
2018-02-17T22:27:46.078Z,0.79
2018-02-17T22:30:14.488Z,0.81
2018-02-17T22:32:42.806Z,0.80
2018-02-17T22:35:11.149Z,0.87
2018-02-17T22:37:39.633Z,0.83
2018-02-17T22:40:07.974Z,0.68
2018-02-17T22:42:36.306Z,0.74
2018-02-17T22:45:04.658Z,0.67
2018-02-17T22:47:32.990Z,0.69
2018-02-17T22:50:01.344Z,0.61
2018-02-17T22:52:29.668Z,0.54
2018-02-17T22:54:58.016Z,0.34
2018-02-17T22:57:26.378Z,0.40
2018-02-17T22:59:54.734Z,0.45
2018-02-17T23:02:23.058Z,0.34
2018-02-17T23:04:52.286Z,0.33
2018-02-17T23:07:20.619Z,0.36
2018-02-17T23:09:48.953Z,0.29
2018-02-17T23:12:17.314Z,0.26
2018-02-17T23:14:45.735Z,0.34
2018-02-17T23:17:14.090Z,0.42
2018-02-17T23:19:42.439Z,0.41
2018-02-17T23:22:10.776Z,0.35
2018-02-17T23:24:39.140Z,0.36
2018-02-17T23:27:07.467Z,0.40
2018-02-17T23:29:35.790Z,0.38
2018-02-17T23:32:04.134Z,0.27
2018-02-17T23:34:32.463Z,0.32
2018-02-17T23:37:00.810Z,0.35
2018-02-17T23:39:29.135Z,0.30
2018-02-17T23:41:57.477Z,0.29
2018-02-17T23:44:25.802Z,0.30
2018-02-17T23:46:54.146Z,0.29
2018-02-17T23:49:22.475Z,0.29
2018-02-17T23:51:50.877Z,0.25
2018-02-17T23:54:19.258Z,0.26
2018-02-17T23:56:47.635Z,0.26
2018-02-17T23:59:15.961Z,0.20
